Time;durP1;ratioP1;P1;durP2;ratioP2;P2;SDS_P1;SDS_P2;PMS_P1;PMS_P2;Temp;Humidity;BMP_temperature;BMP_pressure;BME280_temperature;BME280_humidity;BME280_pressure;Samples;Min_cycle;Max_cycle;Signal;HPM_P1;HPM_P2
2023/06/18 06:08:25;;;;;;;;;;;24.50;35.00;;;;;;1549393;75;472;-74
2023/06/18 06:10:27;;;;;;;;;;;24.50;35.30;;;;;;1547193;75;1258;-74
2023/06/18 06:12:29;;;;;;;;;;;24.50;35.20;;;;;;1544272;76;820;-74
2023/06/18 06:14:32;;;;;;;;;;;24.60;35.00;;;;;;1545048;77;751;-74
2023/06/18 06:16:34;;;;;;;;;;;24.60;35.00;;;;;;1539178;76;799;-70
2023/06/18 06:18:36;;;;;;;;;;;24.50;35.50;;;;;;1541731;76;1943;-72
2023/06/18 06:20:38;;;;;;;;;;;24.50;35.60;;;;;;1547464;75;1176;-72
2023/06/18 06:22:40;;;;;;;;;;;24.50;35.20;;;;;;1542254;76;825;-73
2023/06/18 06:24:42;;;;;;;;;;;24.50;35.10;;;;;;1539901;76;781;-74
2023/06/18 06:26:44;;;;;;;;;;;24.50;34.90;;;;;;1538133;76;716;-74
2023/06/18 06:28:45;;;;;;;;;;;24.50;34.90;;;;;;1544637;76;762;-76
2023/06/18 06:30:47;;;;;;;;;;;24.50;34.70;;;;;;1540938;76;1186;-76
2023/06/18 06:32:49;;;;;;;;;;;24.50;34.70;;;;;;1539776;76;798;-73
2023/06/18 06:34:51;;;;;;;;;;;24.50;34.80;;;;;;1542976;75;802;-78
2023/06/18 06:36:53;;;;;;;;;;;24.50;35.20;;;;;;1544094;76;789;-76
2023/06/18 06:38:55;;;;;;;;;;;24.50;35.10;;;;;;1545258;76;1924;-75
2023/06/18 06:40:57;;;;;;;;;;;24.40;35.30;;;;;;1535852;76;1137;-75
2023/06/18 06:42:59;;;;;;;;;;;24.50;35.80;;;;;;1543441;76;792;-74
2023/06/18 06:45:01;;;;;;;;;;;24.40;35.50;;;;;;1543850;76;766;-74
2023/06/18 06:47:03;;;;;;;;;;;24.50;36.00;;;;;;1544866;76;678;-75
2023/06/18 06:49:07;;;;;;;;;;;24.50;36.00;;;;;;1549130;75;1175;-76
2023/06/18 06:51:09;;;;;;;;;;;24.50;36.00;;;;;;1536977;76;774;-77
2023/06/18 06:53:10;;;;;;;;;;;24.50;36.50;;;;;;1540763;77;775;-73
2023/06/18 06:55:12;;;;;;;;;;;24.40;36.20;;;;;;1539950;76;761;-75
2023/06/18 06:57:14;;;;;;;;;;;24.40;36.20;;;;;;1541318;76;782;-76
2023/06/18 06:59:16;;;;;;;;;;;24.50;36.40;;;;;;1541068;76;1933;-75
2023/06/18 07:01:22;;;;;;;;;;;24.50;36.30;;;;;;1542838;76;765;-75
2023/06/18 07:03:21;;;;;;;;;;;24.50;36.70;;;;;;1534891;76;1112;-78
2023/06/18 07:05:24;;;;;;;;;;;24.50;36.60;;;;;;1538628;75;739;-78
2023/06/18 07:07:25;;;;;;;;;;;24.50;36.60;;;;;;1542505;76;798;-77
2023/06/18 07:09:27;;;;;;;;;;;24.50;36.80;;;;;;1535855;76;1199;-77
2023/06/18 07:11:29;;;;;;;;;;;24.50;36.70;;;;;;1544079;76;757;-77
2023/06/18 07:13:31;;;;;;;;;;;24.50;36.80;;;;;;1545222;76;768;-75
2023/06/18 07:15:33;;;;;;;;;;;24.50;36.80;;;;;;1544913;76;808;-79
2023/06/18 07:17:35;;;;;;;;;;;24.50;37.30;;;;;;1544221;76;752;-73
2023/06/18 07:19:37;;;;;;;;;;;24.50;37.40;;;;;;1545610;75;1945;-75
2023/06/18 07:21:38;;;;;;;;;;;24.50;37.50;;;;;;1544425;76;780;-75
2023/06/18 07:23:40;;;;;;;;;;;24.50;37.70;;;;;;1542708;76;605;-75
2023/06/18 07:25:42;;;;;;;;;;;24.50;37.90;;;;;;1543051;76;707;-76
2023/06/18 07:27:44;;;;;;;;;;;24.50;37.60;;;;;;1541305;76;707;-73
2023/06/18 07:29:46;;;;;;;;;;;24.50;37.70;;;;;;1540756;76;1171;-72
2023/06/18 07:31:48;;;;;;;;;;;24.50;37.80;;;;;;1541544;76;784;-75
2023/06/18 07:33:50;;;;;;;;;;;24.50;37.80;;;;;;1541286;76;664;-73
2023/06/18 07:35:52;;;;;;;;;;;24.50;37.60;;;;;;1541770;76;708;-73
2023/06/18 07:37:54;;;;;;;;;;;24.60;37.60;;;;;;1539268;77;1420;-73
2023/06/18 07:39:56;;;;;;;;;;;24.50;37.60;;;;;;1537810;76;1933;-76
2023/06/18 07:41:58;;;;;;;;;;;24.50;37.30;;;;;;1536832;76;774;-73
2023/06/18 07:44:00;;;;;;;;;;;24.60;37.10;;;;;;1542826;76;771;-76
2023/06/18 07:46:02;;;;;;;;;;;24.60;37.20;;;;;;1542187;76;790;-73
2023/06/18 07:48:04;;;;;;;;;;;24.60;37.00;;;;;;1541971;77;878;-73
2023/06/18 07:50:07;;;;;;;;;;;24.60;36.70;;;;;;1538705;76;1169;-73
2023/06/18 07:52:09;;;;;;;;;;;24.60;36.50;;;;;;1542487;77;779;-75
2023/06/18 07:54:11;;;;;;;;;;;24.70;36.50;;;;;;1542229;76;748;-73
2023/06/18 07:56:13;;;;;;;;;;;24.60;36.30;;;;;;1531986;76;891;-75
2023/06/18 07:58:15;;;;;;;;;;;24.60;36.30;;;;;;1530940;77;774;-74
2023/06/18 08:00:17;;;;;;;;;;;24.70;36.30;;;;;;1543221;76;1932;-73
2023/06/18 08:02:18;;;;;;;;;;;24.60;36.30;;;;;;1536751;76;651;-73
2023/06/18 08:04:20;;;;;;;;;;;24.60;36.10;;;;;;1543902;76;744;-73
2023/06/18 08:06:24;;;;;;;;;;;24.60;36.10;;;;;;1543852;77;772;-73
2023/06/18 08:08:26;;;;;;;;;;;24.70;36.20;;;;;;1542807;76;656;-77
2023/06/18 08:10:28;;;;;;;;;;;24.60;36.00;;;;;;1538204;76;1199;-76
2023/06/18 08:12:30;;;;;;;;;;;24.60;35.90;;;;;;1542985;76;779;-73
2023/06/18 08:14:31;;;;;;;;;;;24.60;35.80;;;;;;1540059;76;750;-72
2023/06/18 08:16:33;;;;;;;;;;;24.60;35.70;;;;;;1543103;76;775;-73
2023/06/18 08:18:35;;;;;;;;;;;24.60;35.60;;;;;;1547480;75;764;-72
2023/06/18 08:20:37;;;;;;;;;;;24.60;35.50;;;;;;1544038;76;1940;-72
2023/06/18 08:22:39;;;;;;;;;;;24.60;35.60;;;;;;1544988;76;809;-72
2023/06/18 08:24:41;;;;;;;;;;;24.60;35.50;;;;;;1538823;76;739;-74
2023/06/18 08:26:44;;;;;;;;;;;24.60;35.50;;;;;;1537312;76;777;-74
2023/06/18 08:28:45;;;;;;;;;;;24.60;35.40;;;;;;1543426;76;783;-73
2023/06/18 08:30:47;;;;;;;;;;;24.50;35.40;;;;;;1537557;76;1152;-75
2023/06/18 08:32:49;;;;;;;;;;;24.50;35.50;;;;;;1549233;75;765;-75
2023/06/18 08:34:52;;;;;;;;;;;24.60;35.40;;;;;;1538173;76;887;-72
2023/06/18 08:36:54;;;;;;;;;;;24.60;35.30;;;;;;1545377;76;770;-70
2023/06/18 08:38:55;;;;;;;;;;;24.70;35.50;;;;;;1546804;76;1472;-70
2023/06/18 08:41:05;;;;;;;;;;;24.60;35.30;;;;;;1544009;76;1951;-71
2023/06/18 08:43:04;;;;;;;;;;;24.60;35.30;;;;;;1543420;76;1431;-73
2023/06/18 08:45:06;;;;;;;;;;;24.60;35.40;;;;;;1541978;76;816;-72
2023/06/18 08:47:08;;;;;;;;;;;24.60;35.40;;;;;;1551909;75;801;-73
2023/06/18 08:49:10;;;;;;;;;;;24.60;35.40;;;;;;1540776;77;1168;-70
2023/06/18 08:51:12;;;;;;;;;;;24.60;35.40;;;;;;1535263;76;768;-73
2023/06/18 08:53:15;;;;;;;;;;;24.60;35.40;;;;;;1544083;76;748;-74
2023/06/18 08:55:17;;;;;;;;;;;24.60;35.30;;;;;;1543987;76;774;-72
2023/06/18 08:57:29;;;;;;;;;;;24.60;35.30;;;;;;1546117;76;763;-73
2023/06/18 08:59:31;;;;;;;;;;;24.60;35.30;;;;;;1543894;76;1939;-73
2023/06/18 09:01:33;;;;;;;;;;;24.50;35.20;;;;;;1510372;77;798;-73
2023/06/18 09:03:37;;;;;;;;;;;24.60;35.40;;;;;;1531037;76;776;-73
2023/06/18 09:05:39;;;;;;;;;;;24.60;35.30;;;;;;1536117;77;726;-70
2023/06/18 09:07:41;;;;;;;;;;;24.60;35.00;;;;;;1535128;76;777;-71
2023/06/18 09:09:42;;;;;;;;;;;24.50;35.30;;;;;;1543961;76;1188;-73
2023/06/18 09:11:44;;;;;;;;;;;24.60;35.30;;;;;;1543761;76;808;-74
2023/06/18 09:13:46;;;;;;;;;;;24.50;35.50;;;;;;1535281;76;698;-72
2023/06/18 09:15:48;;;;;;;;;;;24.50;35.40;;;;;;1543343;75;759;-74
2023/06/18 09:17:53;;;;;;;;;;;24.30;35.40;;;;;;1543827;76;671;-73
2023/06/18 09:19:55;;;;;;;;;;;24.50;35.40;;;;;;1543784;76;1940;-73
2023/06/18 09:21:56;;;;;;;;;;;24.50;35.30;;;;;;1544733;76;762;-71
2023/06/18 09:23:59;;;;;;;;;;;24.50;35.30;;;;;;1515176;77;721;-72
2023/06/18 09:26:01;;;;;;;;;;;24.50;35.50;;;;;;1544467;76;745;-75
2023/06/18 09:28:03;;;;;;;;;;;24.50;35.40;;;;;;1545088;76;757;-74
2023/06/18 09:30:08;;;;;;;;;;;24.50;35.50;;;;;;1540597;77;1157;-74
2023/06/18 09:32:13;;;;;;;;;;;24.50;35.40;;;;;;1530900;76;746;-72
2023/06/18 09:34:16;;;;;;;;;;;24.50;35.30;;;;;;1534369;76;735;-76
2023/06/18 09:36:18;;;;;;;;;;;24.60;35.30;;;;;;1485509;78;759;-73
2023/06/18 09:38:20;;;;;;;;;;;24.50;35.20;;;;;;1515686;77;1428;-74
2023/06/18 09:40:22;;;;;;;;;;;24.60;35.00;;;;;;1503422;78;1941;-74
2023/06/18 09:42:25;;;;;;;;;;;24.60;35.20;;;;;;1499645;78;759;-72
2023/06/18 09:44:27;;;;;;;;;;;24.50;35.40;;;;;;1509647;77;1537;-75
2023/06/18 09:46:29;;;;;;;;;;;24.50;36.40;;;;;;1489405;78;806;-72
2023/06/18 09:48:31;;;;;;;;;;;24.50;37.30;;;;;;1509793;77;784;-74
2023/06/18 09:50:33;;;;;;;;;;;24.60;37.10;;;;;;1496346;77;1158;-70
2023/06/18 09:52:42;;;;;;;;;;;24.60;36.60;;;;;;1505247;77;797;-73
2023/06/18 09:54:44;;;;;;;;;;;24.60;36.80;;;;;;1482915;78;760;-74
2023/06/18 09:56:59;;;;;;;;;;;24.60;36.80;;;;;;1480201;78;794;-74
2023/06/18 09:59:04;;;;;;;;;;;24.60;36.60;;;;;;1472877;78;1162;-73
2023/06/18 10:01:06;;;;;;;;;;;24.70;36.50;;;;;;1481061;78;1940;-73
2023/06/18 10:03:08;;;;;;;;;;;24.50;36.70;;;;;;1487506;78;807;-72
2023/06/18 10:05:10;;;;;;;;;;;24.60;36.50;;;;;;1510504;77;771;-73
2023/06/18 10:07:16;;;;;;;;;;;24.50;36.50;;;;;;1497435;78;755;-73
2023/06/18 10:09:19;;;;;;;;;;;24.60;36.50;;;;;;1500374;78;1253;-73
2023/06/18 10:11:25;;;;;;;;;;;24.60;36.30;;;;;;1489305;78;770;-76
2023/06/18 10:13:29;;;;;;;;;;;24.60;36.30;;;;;;1502043;78;754;-72
2023/06/18 10:15:31;;;;;;;;;;;24.60;36.20;;;;;;1513319;77;791;-74
2023/06/18 10:17:34;;;;;;;;;;;24.60;36.10;;;;;;1510084;78;773;-71
2023/06/18 10:19:45;;;;;;;;;;;24.60;36.20;;;;;;1501251;77;1235;-74
2023/06/18 10:21:49;;;;;;;;;;;24.60;36.10;;;;;;1489549;78;771;-72
2023/06/18 10:23:53;;;;;;;;;;;24.60;36.10;;;;;;1543907;76;1143;-74
2023/06/18 10:25:55;;;;;;;;;;;24.60;35.90;;;;;;1543680;76;836;-73
2023/06/18 10:27:57;;;;;;;;;;;24.60;35.70;;;;;;1536858;76;697;-71
2023/06/18 10:29:59;;;;;;;;;;;24.60;35.60;;;;;;1551410;75;1207;-74
2023/06/18 10:32:01;;;;;;;;;;;24.60;35.70;;;;;;1541350;76;781;-70
2023/06/18 10:34:03;;;;;;;;;;;24.60;35.50;;;;;;1545337;76;1435;-73
2023/06/18 10:36:05;;;;;;;;;;;24.60;35.50;;;;;;1508736;77;783;-73
2023/06/18 10:38:07;;;;;;;;;;;24.60;35.20;;;;;;1522980;76;743;-75
2023/06/18 10:40:09;;;;;;;;;;;24.60;35.30;;;;;;1538550;76;1935;-73
2023/06/18 10:42:12;;;;;;;;;;;24.60;35.00;;;;;;1552749;76;774;-74
2023/06/18 10:44:14;;;;;;;;;;;24.60;35.30;;;;;;1544349;75;822;-74
2023/06/18 10:46:16;;;;;;;;;;;24.60;34.80;;;;;;1535518;76;769;-74
2023/06/18 10:48:23;;;;;;;;;;;24.60;34.80;;;;;;1538892;76;758;-74
2023/06/18 10:50:25;;;;;;;;;;;24.60;34.70;;;;;;1532951;76;1203;-73
2023/06/18 10:52:27;;;;;;;;;;;24.60;34.60;;;;;;1539029;76;781;-72
2023/06/18 10:54:33;;;;;;;;;;;24.60;34.40;;;;;;1545170;76;753;-73
2023/06/18 10:56:36;;;;;;;;;;;24.50;34.60;;;;;;1531300;76;1790;-73
2023/06/18 10:58:40;;;;;;;;;;;24.60;34.40;;;;;;1541916;75;780;-72
2023/06/18 11:00:42;;;;;;;;;;;24.60;34.70;;;;;;1543775;76;1943;-72
2023/06/18 11:02:44;;;;;;;;;;;24.60;34.60;;;;;;1543947;76;768;-72
2023/06/18 11:04:48;;;;;;;;;;;24.60;34.70;;;;;;1544219;76;719;-72
2023/06/18 11:06:50;;;;;;;;;;;24.60;34.70;;;;;;1544193;76;1631;-72
2023/06/18 11:08:53;;;;;;;;;;;24.60;34.40;;;;;;1543939;76;880;-73
2023/06/18 11:11:15;;;;;;;;;;;24.60;34.60;;;;;;1543150;76;1300;-72
2023/06/18 11:13:17;;;;;;;;;;;24.60;34.70;;;;;;1533373;75;512;-72
2023/06/18 11:15:20;;;;;;;;;;;24.60;34.40;;;;;;1537359;76;734;-72
2023/06/18 11:17:22;;;;;;;;;;;24.60;34.60;;;;;;1534082;76;764;-71
2023/06/18 11:19:24;;;;;;;;;;;24.60;34.50;;;;;;1538359;76;1236;-72
2023/06/18 11:21:26;;;;;;;;;;;24.60;34.40;;;;;;1544981;76;1925;-72
2023/06/18 11:23:28;;;;;;;;;;;24.60;34.50;;;;;;1543906;76;781;-70
2023/06/18 11:25:30;;;;;;;;;;;24.60;34.20;;;;;;1542277;76;740;-72
2023/06/18 11:27:32;;;;;;;;;;;24.60;34.30;;;;;;1540059;75;769;-72
2023/06/18 11:29:34;;;;;;;;;;;24.60;34.20;;;;;;1532075;76;1185;-72
2023/06/18 11:31:36;;;;;;;;;;;24.60;34.20;;;;;;1536095;76;1464;-73
2023/06/18 11:33:38;;;;;;;;;;;24.60;34.30;;;;;;1542474;76;771;-74
2023/06/18 11:35:40;;;;;;;;;;;24.60;34.20;;;;;;1540457;76;695;-75
2023/06/18 11:37:42;;;;;;;;;;;24.60;34.00;;;;;;1534275;76;783;-70
2023/06/18 11:39:44;;;;;;;;;;;24.60;33.80;;;;;;1543910;76;1168;-73
2023/06/18 11:41:46;;;;;;;;;;;24.50;33.70;;;;;;1544722;75;1941;-71
2023/06/18 11:43:51;;;;;;;;;;;24.60;33.50;;;;;;1541626;76;787;-75
2023/06/18 11:45:53;;;;;;;;;;;24.60;33.70;;;;;;1553311;76;787;-73
2023/06/18 11:47:55;;;;;;;;;;;24.60;33.60;;;;;;1538637;76;837;-74
2023/06/18 11:49:57;;;;;;;;;;;24.50;33.40;;;;;;1541459;76;1164;-74
2023/06/18 11:51:59;;;;;;;;;;;24.50;33.80;;;;;;1543618;76;792;-72
2023/06/18 11:54:01;;;;;;;;;;;24.60;33.70;;;;;;1543038;77;746;-74
2023/06/18 11:56:03;;;;;;;;;;;24.50;33.80;;;;;;1507198;77;773;-73
2023/06/18 11:58:05;;;;;;;;;;;24.60;33.80;;;;;;1543454;76;760;-71
2023/06/18 12:00:10;;;;;;;;;;;24.70;33.90;;;;;;1563481;71;2058;-75
2023/06/18 12:02:13;;;;;;;;;;;24.50;33.40;;;;;;1585616;73;1937;-75
2023/06/18 12:04:15;;;;;;;;;;;24.60;33.30;;;;;;1591773;73;763;-76
2023/06/18 12:06:17;;;;;;;;;;;24.60;33.10;;;;;;1596732;73;730;-75
2023/06/18 12:08:19;;;;;;;;;;;24.60;33.20;;;;;;1592622;73;567;-76
2023/06/18 12:10:21;;;;;;;;;;;24.60;33.30;;;;;;1595175;73;1245;-76
2023/06/18 12:12:34;;;;;;;;;;;24.70;33.30;;;;;;1546114;75;1054;-76
2023/06/18 12:14:37;;;;;;;;;;;24.60;33.20;;;;;;1588496;73;688;-75
2023/06/18 12:16:41;;;;;;;;;;;24.60;33.10;;;;;;1588078;73;746;-76
2023/06/18 12:18:43;;;;;;;;;;;24.50;33.00;;;;;;1607010;73;735;-75
2023/06/18 12:20:45;;;;;;;;;;;24.60;33.00;;;;;;1601181;73;1938;-76
2023/06/18 12:22:47;;;;;;;;;;;24.60;32.80;;;;;;1588407;73;659;-75
2023/06/18 12:24:49;;;;;;;;;;;24.60;32.80;;;;;;1598616;73;739;-75
2023/06/18 12:26:51;;;;;;;;;;;24.60;32.80;;;;;;1596769;73;1456;-75
2023/06/18 12:28:53;;;;;;;;;;;24.50;32.60;;;;;;1608802;73;802;-73
2023/06/18 12:30:55;;;;;;;;;;;24.50;32.80;;;;;;1605217;73;1150;-75
2023/06/18 12:33:03;;;;;;;;;;;24.60;32.80;;;;;;1611668;73;806;-74
2023/06/18 12:35:15;;;;;;;;;;;24.50;32.80;;;;;;1597746;73;771;-75
2023/06/18 12:37:17;;;;;;;;;;;24.60;32.60;;;;;;1585675;73;949;-75
2023/06/18 12:39:19;;;;;;;;;;;24.50;32.60;;;;;;1590694;73;758;-75
2023/06/18 12:41:22;;;;;;;;;;;24.60;32.40;;;;;;1591776;73;1929;-76
2023/06/18 12:43:24;;;;;;;;;;;24.60;32.40;;;;;;1599954;73;746;-75
2023/06/18 12:45:27;;;;;;;;;;;24.60;32.50;;;;;;1604341;73;786;-75
2023/06/18 12:47:31;;;;;;;;;;;24.50;32.40;;;;;;1580439;73;1701;-75
2023/06/18 12:49:38;;;;;;;;;;;24.60;32.30;;;;;;1603912;73;1159;-76
2023/06/18 12:51:42;;;;;;;;;;;24.60;32.40;;;;;;1598285;73;774;-76
2023/06/18 12:53:44;;;;;;;;;;;24.60;32.40;;;;;;1603123;73;920;-78
2023/06/18 12:55:47;;;;;;;;;;;24.50;32.30;;;;;;1603454;73;766;-74
2023/06/18 12:57:49;;;;;;;;;;;24.50;32.40;;;;;;1598697;73;747;-74
2023/06/18 12:59:51;;;;;;;;;;;24.50;32.20;;;;;;1604317;73;1165;-76
2023/06/18 13:01:55;;;;;;;;;;;24.50;32.30;;;;;;1608187;73;1918;-75
2023/06/18 13:03:58;;;;;;;;;;;24.50;32.30;;;;;;1589905;73;737;-77
2023/06/18 13:06:00;;;;;;;;;;;24.50;32.30;;;;;;1608681;73;755;-75
2023/06/18 13:08:01;;;;;;;;;;;24.50;32.20;;;;;;1606666;73;775;-75
2023/06/18 13:10:03;;;;;;;;;;;24.50;32.30;;;;;;1600076;73;1210;-75
2023/06/18 13:12:06;;;;;;;;;;;24.60;32.30;;;;;;1589596;73;761;-77
2023/06/18 13:14:07;;;;;;;;;;;24.60;32.40;;;;;;1593379;73;783;-78
2023/06/18 13:16:09;;;;;;;;;;;24.50;32.20;;;;;;1601326;73;953;-75
2023/06/18 13:18:11;;;;;;;;;;;24.50;32.30;;;;;;1603852;73;771;-75
2023/06/18 13:20:13;;;;;;;;;;;24.60;32.10;;;;;;1601174;72;1236;-75
2023/06/18 13:22:15;;;;;;;;;;;24.60;32.10;;;;;;1591424;73;1928;-75
2023/06/18 13:24:17;;;;;;;;;;;24.60;32.00;;;;;;1598823;73;1418;-75
2023/06/18 13:26:19;;;;;;;;;;;24.60;31.90;;;;;;1599830;73;643;-75
2023/06/18 13:28:21;;;;;;;;;;;24.50;31.90;;;;;;1594974;73;738;-77
2023/06/18 13:30:22;;;;;;;;;;;24.60;31.80;;;;;;1598428;73;1150;-75
2023/06/18 13:32:24;;;;;;;;;;;24.60;31.80;;;;;;1602240;73;800;-75
2023/06/18 13:34:26;;;;;;;;;;;24.50;31.60;;;;;;1603422;73;659;-75
2023/06/18 13:36:28;;;;;;;;;;;24.60;31.70;;;;;;1604399;73;761;-75
2023/06/18 13:38:30;;;;;;;;;;;24.60;31.50;;;;;;1588454;73;774;-75
2023/06/18 13:40:32;;;;;;;;;;;24.60;31.70;;;;;;1608464;73;1152;-76
2023/06/18 13:42:34;;;;;;;;;;;24.60;31.60;;;;;;1589471;73;1927;-78
2023/06/18 13:44:36;;;;;;;;;;;24.60;31.80;;;;;;1590713;73;781;-76
2023/06/18 13:46:38;;;;;;;;;;;24.50;31.80;;;;;;1595035;73;754;-72
2023/06/18 13:48:40;;;;;;;;;;;24.50;31.80;;;;;;1604275;73;766;-75
2023/06/18 13:50:42;;;;;;;;;;;24.50;31.70;;;;;;1596247;73;1167;-75
2023/06/18 13:52:43;;;;;;;;;;;24.50;31.60;;;;;;1586248;72;754;-75
2023/06/18 13:54:46;;;;;;;;;;;24.60;31.30;;;;;;1598710;73;757;-75
2023/06/18 13:56:48;;;;;;;;;;;24.50;31.50;;;;;;1603524;73;789;-75
2023/06/18 13:58:49;;;;;;;;;;;24.50;31.40;;;;;;1590163;73;750;-75
2023/06/18 14:00:51;;;;;;;;;;;24.60;31.50;;;;;;1599589;73;1162;-76
2023/06/18 14:02:53;;;;;;;;;;;24.60;31.50;;;;;;1610209;73;1930;-75
2023/06/18 14:04:55;;;;;;;;;;;24.60;31.60;;;;;;1583433;73;802;-75
2023/06/18 14:06:57;;;;;;;;;;;24.50;31.60;;;;;;1598101;73;755;-73
2023/06/18 14:08:59;;;;;;;;;;;24.60;31.60;;;;;;1599367;73;780;-75
2023/06/18 14:11:01;;;;;;;;;;;24.50;31.70;;;;;;1603695;73;1170;-75
2023/06/18 14:13:03;;;;;;;;;;;24.60;31.50;;;;;;1597581;73;626;-75
2023/06/18 14:15:04;;;;;;;;;;;24.50;31.60;;;;;;1595866;73;692;-78
2023/06/18 14:17:10;;;;;;;;;;;24.50;31.60;;;;;;1599987;73;761;-75
2023/06/18 14:19:10;;;;;;;;;;;24.50;31.70;;;;;;1603775;73;1414;-75
2023/06/18 14:21:12;;;;;;;;;;;24.50;31.50;;;;;;1603149;73;1942;-76
2023/06/18 14:23:15;;;;;;;;;;;24.60;31.50;;;;;;1598094;73;751;-77
2023/06/18 14:25:16;;;;;;;;;;;24.50;31.80;;;;;;1593153;73;761;-75
2023/06/18 14:27:18;;;;;;;;;;;24.50;31.70;;;;;;1598007;73;682;-73
2023/06/18 14:29:20;;;;;;;;;;;24.50;31.60;;;;;;1603402;73;771;-75
2023/06/18 14:31:22;;;;;;;;;;;24.50;31.60;;;;;;1600342;73;1210;-75
2023/06/18 14:33:24;;;;;;;;;;;24.60;31.70;;;;;;1598948;73;788;-73
2023/06/18 14:35:26;;;;;;;;;;;24.50;31.70;;;;;;1602085;73;777;-78
2023/06/18 14:37:28;;;;;;;;;;;24.50;31.60;;;;;;1587599;73;745;-76
2023/06/18 14:39:30;;;;;;;;;;;24.60;31.70;;;;;;1589401;73;1164;-75
2023/06/18 14:41:31;;;;;;;;;;;24.50;31.70;;;;;;1602333;73;1953;-75
2023/06/18 14:43:33;;;;;;;;;;;24.50;31.60;;;;;;1597263;73;741;-75
2023/06/18 14:45:35;;;;;;;;;;;24.50;31.70;;;;;;1581415;73;789;-75
2023/06/18 14:47:40;;;;;;;;;;;24.50;31.70;;;;;;1598580;73;803;-77
2023/06/18 14:49:41;;;;;;;;;;;24.60;31.60;;;;;;1587774;73;1155;-75
2023/06/18 14:51:42;;;;;;;;;;;24.50;31.80;;;;;;1600003;73;780;-73
2023/06/18 14:53:50;;;;;;;;;;;24.50;31.60;;;;;;1577800;73;766;-75
2023/06/18 14:55:48;;;;;;;;;;;24.50;31.60;;;;;;1582716;73;1063;-75
2023/06/18 14:57:50;;;;;;;;;;;24.50;31.50;;;;;;1598139;73;805;-76
2023/06/18 14:59:55;;;;;;;;;;;24.50;31.70;;;;;;1601329;73;1158;-75
2023/06/18 15:01:56;;;;;;;;;;;24.50;31.80;;;;;;1600133;73;1913;-75
2023/06/18 15:03:58;;;;;;;;;;;24.50;31.80;;;;;;1600044;73;644;-74
2023/06/18 15:06:00;;;;;;;;;;;24.50;31.60;;;;;;1598587;73;729;-75
2023/06/18 15:08:01;;;;;;;;;;;24.50;31.60;;;;;;1596666;73;760;-75
2023/06/18 15:10:03;;;;;;;;;;;24.50;31.60;;;;;;1596734;73;1231;-75
2023/06/18 15:12:06;;;;;;;;;;;24.50;31.70;;;;;;1603563;73;621;-76
2023/06/18 15:14:08;;;;;;;;;;;24.50;31.80;;;;;;1590678;73;702;-75
2023/06/18 15:16:09;;;;;;;;;;;24.50;31.50;;;;;;1598557;73;1452;-77
2023/06/18 15:18:11;;;;;;;;;;;24.50;31.40;;;;;;1589753;73;714;-78
2023/06/18 15:20:14;;;;;;;;;;;24.50;31.40;;;;;;1593634;73;1248;-73
2023/06/18 15:22:15;;;;;;;;;;;24.50;31.40;;;;;;1601190;73;1927;-74
2023/06/18 15:24:17;;;;;;;;;;;24.60;31.40;;;;;;1585483;73;770;-74
2023/06/18 15:26:22;;;;;;;;;;;24.50;31.70;;;;;;1602583;73;808;-75
2023/06/18 15:28:24;;;;;;;;;;;24.50;31.60;;;;;;1595927;73;753;-75
2023/06/18 15:30:26;;;;;;;;;;;24.50;31.40;;;;;;1596595;73;1182;-73
2023/06/18 15:32:28;;;;;;;;;;;24.50;31.50;;;;;;1606710;73;814;-75
2023/06/18 15:34:29;;;;;;;;;;;24.60;31.30;;;;;;1596936;73;758;-75
2023/06/18 15:36:32;;;;;;;;;;;24.60;31.10;;;;;;1601711;73;748;-75
2023/06/18 15:38:33;;;;;;;;;;;24.50;31.10;;;;;;1599272;73;763;-75
2023/06/18 15:40:36;;;;;;;;;;;24.60;31.20;;;;;;1603855;73;1173;-76
2023/06/18 15:42:38;;;;;;;;;;;24.50;31.20;;;;;;1598612;73;1928;-75
2023/06/18 15:44:40;;;;;;;;;;;24.50;31.30;;;;;;1598734;73;775;-75
2023/06/18 15:46:43;;;;;;;;;;;24.50;31.40;;;;;;1596688;73;746;-77
2023/06/18 15:48:45;;;;;;;;;;;24.50;31.50;;;;;;1596763;73;761;-75
2023/06/18 15:50:47;;;;;;;;;;;24.50;31.50;;;;;;1601607;73;1175;-75
2023/06/18 15:52:49;;;;;;;;;;;24.50;31.40;;;;;;1598989;73;743;-76
2023/06/18 15:54:51;;;;;;;;;;;24.60;31.30;;;;;;1603339;73;764;-76
2023/06/18 15:56:53;;;;;;;;;;;24.50;31.40;;;;;;1592947;73;715;-74
2023/06/18 15:58:55;;;;;;;;;;;24.50;31.50;;;;;;1580416;73;794;-76
2023/06/18 16:00:57;;;;;;;;;;;24.50;31.50;;;;;;1590164;73;1169;-74
2023/06/18 16:02:58;;;;;;;;;;;24.50;31.50;;;;;;1599346;73;1926;-75
2023/06/18 16:05:00;;;;;;;;;;;24.60;31.60;;;;;;1592873;73;773;-75
2023/06/18 16:07:02;;;;;;;;;;;24.50;31.70;;;;;;1608211;73;730;-75
2023/06/18 16:09:04;;;;;;;;;;;24.50;31.60;;;;;;1588271;73;768;-75
2023/06/18 16:11:08;;;;;;;;;;;24.50;31.70;;;;;;1599585;73;1175;-75
2023/06/18 16:13:09;;;;;;;;;;;24.50;31.80;;;;;;1595572;73;1556;-76
2023/06/18 16:15:12;;;;;;;;;;;24.50;31.60;;;;;;1586061;73;778;-73
2023/06/18 16:17:14;;;;;;;;;;;24.50;31.80;;;;;;1588512;73;749;-78
2023/06/18 16:19:16;;;;;;;;;;;24.50;31.80;;;;;;1597374;73;798;-73
2023/06/18 16:21:18;;;;;;;;;;;24.50;31.80;;;;;;1584670;73;1179;-76
2023/06/18 16:23:20;;;;;;;;;;;24.50;31.90;;;;;;1588660;73;1934;-76
2023/06/18 16:25:22;;;;;;;;;;;24.50;31.80;;;;;;1591345;73;758;-76
2023/06/18 16:27:24;;;;;;;;;;;24.50;31.90;;;;;;1597262;73;736;-75
2023/06/18 16:29:27;;;;;;;;;;;24.50;31.90;;;;;;1592630;73;1181;-76
2023/06/18 16:31:29;;;;;;;;;;;24.50;32.00;;;;;;1598764;73;642;-75
2023/06/18 16:33:31;;;;;;;;;;;24.50;32.00;;;;;;1603326;73;773;-75
2023/06/18 16:35:32;;;;;;;;;;;24.50;32.00;;;;;;1591975;73;751;-76
2023/06/18 16:37:34;;;;;;;;;;;24.50;32.10;;;;;;1598396;73;763;-75
2023/06/18 16:39:36;;;;;;;;;;;24.50;32.00;;;;;;1598541;73;1147;-76
2023/06/18 16:41:38;;;;;;;;;;;24.50;32.00;;;;;;1594884;73;765;-77
2023/06/18 16:43:40;;;;;;;;;;;24.50;32.00;;;;;;1589011;73;1938;-75
2023/06/18 16:45:43;;;;;;;;;;;24.50;31.90;;;;;;1584475;73;764;-75
2023/06/18 16:47:45;;;;;;;;;;;24.50;32.10;;;;;;1599123;73;915;-76
2023/06/18 16:49:47;;;;;;;;;;;24.50;32.10;;;;;;1594220;73;1154;-76
2023/06/18 16:51:49;;;;;;;;;;;24.50;31.90;;;;;;1592579;73;756;-78
2023/06/18 16:53:51;;;;;;;;;;;24.50;31.90;;;;;;1596497;73;781;-75
2023/06/18 16:55:52;;;;;;;;;;;24.50;31.90;;;;;;1588633;73;786;-76
2023/06/18 16:57:54;;;;;;;;;;;24.50;32.10;;;;;;1594665;73;783;-76
2023/06/18 16:59:58;;;;;;;;;;;24.50;32.00;;;;;;1591361;73;1293;-74
2023/06/18 17:02:00;;;;;;;;;;;24.50;32.10;;;;;;1597741;73;1076;-78
2023/06/18 17:04:03;;;;;;;;;;;24.50;32.00;;;;;;1595188;73;1933;-75
2023/06/18 17:06:05;;;;;;;;;;;24.50;32.10;;;;;;1593790;73;739;-76
2023/06/18 17:08:07;;;;;;;;;;;24.50;32.10;;;;;;1596663;73;1407;-75
2023/06/18 17:10:09;;;;;;;;;;;24.50;32.10;;;;;;1587772;73;1197;-76
2023/06/18 17:12:11;;;;;;;;;;;24.50;32.10;;;;;;1599198;73;781;-76
2023/06/18 17:14:13;;;;;;;;;;;24.50;32.10;;;;;;1599553;73;779;-75
2023/06/18 17:16:15;;;;;;;;;;;24.50;32.10;;;;;;1588480;73;742;-73
2023/06/18 17:18:17;;;;;;;;;;;24.50;32.10;;;;;;1585935;73;788;-76
2023/06/18 17:20:19;;;;;;;;;;;24.50;32.10;;;;;;1604512;73;1240;-76
2023/06/18 17:22:21;;;;;;;;;;;24.50;32.20;;;;;;1596292;73;1941;-71
2023/06/18 17:24:23;;;;;;;;;;;24.50;32.20;;;;;;1611968;73;773;-76
2023/06/18 17:26:25;;;;;;;;;;;24.50;32.30;;;;;;1587233;73;685;-77
2023/06/18 17:28:27;;;;;;;;;;;24.50;32.30;;;;;;1603404;73;644;-75
2023/06/18 17:30:29;;;;;;;;;;;24.50;32.40;;;;;;1601632;72;1174;-73
2023/06/18 17:32:31;;;;;;;;;;;24.50;32.50;;;;;;1601033;73;785;-75
2023/06/18 17:34:32;;;;;;;;;;;24.50;32.50;;;;;;1594523;73;796;-77
2023/06/18 17:36:34;;;;;;;;;;;24.50;32.60;;;;;;1584840;73;768;-75
2023/06/18 17:38:36;;;;;;;;;;;24.50;32.60;;;;;;1595293;73;851;-75
2023/06/18 17:40:38;;;;;;;;;;;24.50;32.60;;;;;;1600310;73;1161;-75
2023/06/18 17:42:40;;;;;;;;;;;24.50;32.60;;;;;;1591420;73;1936;-75
2023/06/18 17:44:42;;;;;;;;;;;24.50;32.70;;;;;;1582885;73;766;-75
2023/06/18 17:46:44;;;;;;;;;;;24.50;32.70;;;;;;1590143;73;730;-75
2023/06/18 17:48:47;;;;;;;;;;;24.50;32.70;;;;;;1596985;73;775;-78
2023/06/18 17:50:49;;;;;;;;;;;24.50;32.80;;;;;;1599812;73;1146;-76
2023/06/18 17:52:51;;;;;;;;;;;24.50;32.80;;;;;;1592220;73;770;-76
2023/06/18 17:54:53;;;;;;;;;;;24.50;32.80;;;;;;1601798;73;694;-74
2023/06/18 17:56:55;;;;;;;;;;;24.50;32.80;;;;;;1581695;73;805;-76
2023/06/18 17:58:56;;;;;;;;;;;24.50;32.80;;;;;;1599018;73;878;-77
2023/06/18 18:00:58;;;;;;;;;;;24.50;32.80;;;;;;1598999;73;1154;-75
2023/06/18 18:03:00;;;;;;;;;;;24.50;32.80;;;;;;1593854;73;1942;-76
2023/06/18 18:05:02;;;;;;;;;;;24.50;32.80;;;;;;1594405;73;1563;-76
2023/06/18 18:07:04;;;;;;;;;;;24.50;32.80;;;;;;1590957;73;767;-76
2023/06/18 18:09:06;;;;;;;;;;;24.50;32.80;;;;;;1598704;73;1097;-73
2023/06/18 18:11:08;;;;;;;;;;;24.50;32.80;;;;;;1599217;73;1490;-75
2023/06/18 18:13:10;;;;;;;;;;;24.50;32.80;;;;;;1598216;73;1422;-76
2023/06/18 18:15:12;;;;;;;;;;;24.50;32.90;;;;;;1566149;74;1384;-77
2023/06/18 18:17:13;;;;;;;;;;;24.50;32.90;;;;;;1596769;73;1394;-75